Time;durP1;ratioP1;P1;durP2;ratioP2;P2;SDS_P1;SDS_P2;PMS_P1;PMS_P2;Temp;Humidity;BMP_temperature;BMP_pressure;BME280_temperature;BME280_humidity;BME280_pressure;Samples;Min_cycle;Max_cycle;Signal;HPM_P1;HPM_P2
2021/04/04 00:02:10;;;;;;;12.93;7.25;;;;;;;9.09;69.14;100702.16;4718183;30;20044;-73
2021/04/04 00:05:15;;;;;;;9.88;5.78;;;;;;;9.08;69.83;100699.59;4717400;30;20106;-73
2021/04/04 00:08:19;;;;;;;10.15;6.25;;;;;;;9.15;69.42;100712.41;4717391;30;20064;-73
2021/04/04 00:11:23;;;;;;;10.40;5.78;;;;;;;9.22;69.54;100717.28;4718135;30;20056;-73
2021/04/04 00:14:28;;;;;;;12.40;6.07;;;;;;;9.26;69.26;100716.94;4718117;30;20068;-73
2021/04/04 00:17:32;;;;;;;11.45;6.55;;;;;;;9.25;69.18;100717.91;4718059;30;20070;-73
2021/04/04 00:20:37;;;;;;;12.75;6.18;;;;;;;9.23;69.40;100722.53;4718141;30;20060;-73
2021/04/04 00:23:42;;;;;;;9.07;6.18;;;;;;;9.16;69.59;100716.78;4718000;30;20508;-73
2021/04/04 00:26:46;;;;;;;9.73;6.45;;;;;;;9.03;70.33;100723.19;4717189;30;20064;-73
2021/04/04 00:29:50;;;;;;;10.65;7.05;;;;;;;8.99;70.45;100724.38;4717927;30;20080;-73
2021/04/04 00:32:54;;;;;;;10.25;7.45;;;;;;;8.96;70.81;100721.97;4720709;30;20060;-73
2021/04/04 00:35:59;;;;;;;12.20;6.43;;;;;;;9.05;70.33;100722.13;4721259;30;20493;-72
2021/04/04 00:39:11;;;;;;;12.25;6.82;;;;;;;9.01;70.57;100730.50;4720934;30;20060;-73
2021/04/04 00:42:16;;;;;;;16.30;7.53;;;;;;;8.91;70.66;100730.31;4721157;30;20509;-71
2021/04/04 00:45:32;;;;;;;9.82;6.60;;;;;;;8.80;70.86;100722.25;4721072;30;20382;-72
2021/04/04 00:48:36;;;;;;;14.68;7.05;;;;;;;8.80;70.97;100711.53;4721056;30;20060;-73
2021/04/04 00:51:41;;;;;;;13.85;7.32;;;;;;;8.72;71.23;100721.94;4720209;30;20060;-73
2021/04/04 00:54:52;;;;;;;9.85;7.13;;;;;;;8.73;71.44;100725.50;4720969;30;20406;-73
2021/04/04 00:57:56;;;;;;;10.32;6.57;;;;;;;8.73;71.31;100725.50;4720110;30;20079;-73
2021/04/04 01:01:02;;;;;;;11.98;6.88;;;;;;;8.58;71.63;100721.25;4720770;30;20059;-73
2021/04/04 01:04:06;;;;;;;12.98;6.85;;;;;;;8.58;72.07;100723.94;4720811;30;20502;-73
2021/04/04 01:07:11;;;;;;;10.55;6.72;;;;;;;8.46;72.39;100729.25;4719946;30;20056;-72
2021/04/04 01:10:17;;;;;;;8.57;6.45;;;;;;;8.44;72.60;100725.78;4719899;30;20072;-71
2021/04/04 01:13:42;;;;;;;10.38;7.25;;;;;;;8.48;72.44;100719.28;4720641;30;20064;-72
2021/04/04 01:16:52;;;;;;;14.60;7.18;;;;;;;8.36;72.59;100713.97;4720784;30;20084;-73
2021/04/04 01:20:27;;;;;;;12.07;7.18;;;;;;;8.19;73.45;100715.16;4720400;30;20079;-73
2021/04/04 01:23:49;;;;;;;13.32;7.68;;;;;;;8.03;74.31;100713.69;4720461;30;20061;-73
2021/04/04 01:27:07;;;;;;;12.23;7.45;;;;;;;7.94;74.73;100711.66;4720380;30;20060;-73
2021/04/04 01:30:12;;;;;;;12.13;8.40;;;;;;;7.89;75.17;100712.00;4720303;30;20064;-73
2021/04/04 01:33:19;;;;;;;17.58;9.07;;;;;;;7.88;75.20;100716.50;4719544;30;20508;-73
2021/04/04 01:36:25;;;;;;;12.00;7.03;;;;;;;8.00;74.75;100721.94;4719759;30;20056;-73
2021/04/04 01:39:40;;;;;;;13.10;7.60;;;;;;;7.94;74.43;100727.72;4719871;30;20121;-73
2021/04/04 01:42:45;;;;;;;10.43;7.80;;;;;;;7.85;74.56;100727.38;4719072;30;20076;-71
2021/04/04 01:45:52;;;;;;;16.38;8.00;;;;;;;7.86;74.17;100713.06;4720160;30;20064;-73
2021/04/04 01:48:58;;;;;;;12.00;8.32;;;;;;;7.86;73.39;100728.25;4720055;30;20060;-73
2021/04/04 01:52:04;;;;;;;13.23;7.90;;;;;;;7.85;72.99;100722.03;4720251;30;20060;-72
2021/04/04 01:55:10;;;;;;;11.75;8.00;;;;;;;7.80;72.79;100726.03;4720016;30;20060;-71
2021/04/04 01:58:15;;;;;;;10.93;7.18;;;;;;;7.66;72.80;100715.44;4720196;30;20052;-73
2021/04/04 02:01:20;;;;;;;12.25;8.00;;;;;;;7.58;72.86;100713.28;4719815;30;20137;-73
2021/04/04 02:04:25;;;;;;;15.15;7.82;;;;;;;7.50;73.18;100713.00;4720064;30;20060;-73
2021/04/04 02:07:30;;;;;;;14.25;7.80;;;;;;;7.52;73.24;100715.53;4720035;30;20614;-73
2021/04/04 02:10:37;;;;;;;13.63;8.23;;;;;;;7.54;73.86;100708.28;4719714;30;20064;-72
2021/04/04 02:13:45;;;;;;;13.70;7.93;;;;;;;7.53;74.23;100707.41;4719682;30;20118;-73
2021/04/04 02:16:54;;;;;;;13.88;8.43;;;;;;;7.45;74.40;100703.59;4719557;30;20053;-72
2021/04/04 02:19:59;;;;;;;13.00;8.13;;;;;;;7.44;74.66;100704.53;4708913;30;20398;-73
2021/04/04 02:23:06;;;;;;;11.73;8.32;;;;;;;7.42;74.84;100699.31;4719435;30;20072;-72
2021/04/04 02:26:10;;;;;;;14.32;8.98;;;;;;;7.36;75.28;100699.72;4719419;30;20080;-72
2021/04/04 02:29:16;;;;;;;11.23;8.30;;;;;;;7.51;75.20;100709.34;4719667;30;20392;-72
2021/04/04 02:32:23;;;;;;;13.38;7.97;;;;;;;7.59;74.71;100706.13;4718834;30;20390;-72
2021/04/04 02:35:32;;;;;;;10.35;6.97;;;;;;;7.67;73.85;100704.66;4719304;30;20056;-72
2021/04/04 02:38:42;;;;;;;7.78;6.05;;;;;;;7.65;71.99;100703.06;4719511;30;20494;-73
2021/04/04 02:41:47;;;;;;;15.68;6.55;;;;;;;7.55;71.34;100707.31;4719158;30;20064;-72
2021/04/04 02:44:54;;;;;;;9.25;6.25;;;;;;;7.38;70.98;100704.97;4718614;30;20497;-72
2021/04/04 02:48:04;;;;;;;9.05;5.28;;;;;;;7.37;70.85;100719.28;4719126;30;20397;-73
2021/04/04 02:51:13;;;;;;;13.13;5.88;;;;;;;7.45;70.61;100714.25;4719083;30;20056;-73
2021/04/04 02:54:21;;;;;;;10.88;6.47;;;;;;;7.35;70.17;100707.84;4718317;30;20057;-73
2021/04/04 02:57:30;;;;;;;8.75;5.47;;;;;;;7.36;69.83;100715.75;4718928;30;20080;-73
2021/04/04 03:00:40;;;;;;;7.68;5.13;;;;;;;7.37;69.75;100716.59;4718752;30;20062;-72
2021/04/04 03:03:47;;;;;;;9.18;5.55;;;;;;;7.42;69.65;100711.81;4718760;30;20493;-72
2021/04/04 03:06:53;;;;;;;11.07;5.50;;;;;;;7.32;69.68;100718.72;4718758;30;20064;-73
2021/04/04 03:10:01;;;;;;;9.48;5.75;;;;;;;7.27;69.68;100715.53;4717729;30;20052;-73
2021/04/04 03:13:08;;;;;;;9.95;5.13;;;;;;;7.29;69.75;100722.47;4718489;30;20402;-74
2021/04/04 03:16:29;;;;;;;9.77;5.47;;;;;;;7.44;69.58;100728.56;4718670;30;20052;-73
2021/04/04 03:19:37;;;;;;;10.45;5.60;;;;;;;7.47;69.25;100728.38;4718623;30;20501;-74
2021/04/04 03:22:45;;;;;;;8.98;4.90;;;;;;;7.44;69.27;100720.56;4718303;30;20513;-73
2021/04/04 03:25:50;;;;;;;8.35;5.05;;;;;;;7.37;69.49;100720.13;4717711;30;20398;-74
2021/04/04 03:28:55;;;;;;;10.85;5.25;;;;;;;7.19;69.69;100722.25;4718482;30;20071;-73
2021/04/04 03:32:01;;;;;;;8.57;4.97;;;;;;;7.15;69.82;100714.56;4718701;30;20060;-71
2021/04/04 03:35:07;;;;;;;8.02;4.78;;;;;;;7.09;69.82;100717.63;4727686;30;20064;-73
2021/04/04 03:38:13;;;;;;;9.65;4.60;;;;;;;7.03;69.86;100710.91;4718351;30;20056;-75
2021/04/04 03:41:18;;;;;;;7.45;4.53;;;;;;;6.98;69.53;100704.16;4718233;30;20075;-72
2021/04/04 03:44:26;;;;;;;6.55;4.45;;;;;;;7.01;69.45;100712.78;4718534;30;20048;-72
2021/04/04 03:47:31;;;;;;;8.75;4.13;;;;;;;6.96;69.52;100712.25;4718243;30;20512;-72
2021/04/04 03:50:38;;;;;;;7.22;4.25;;;;;;;6.89;69.48;100710.97;4718254;30;20501;-73
2021/04/04 03:53:45;;;;;;;10.82;5.50;;;;;;;6.99;69.49;100709.38;4727560;30;20059;-72
2021/04/04 03:56:51;;;;;;;7.20;4.60;;;;;;;6.90;68.76;100715.34;4717599;30;20056;-71
2021/04/04 03:59:57;;;;;;;7.40;4.30;;;;;;;6.85;69.01;100716.59;4718201;30;20064;-73
2021/04/04 04:03:03;;;;;;;9.77;4.60;;;;;;;6.70;68.54;100723.81;4718396;30;20064;-73
2021/04/04 04:06:08;;;;;;;8.77;4.10;;;;;;;6.57;68.99;100717.56;4719942;30;20052;-73
2021/04/04 04:09:15;;;;;;;8.02;3.85;;;;;;;6.52;68.31;100711.69;4721903;30;20059;-73
2021/04/04 04:12:20;;;;;;;10.27;4.07;;;;;;;6.37;68.45;100716.19;4721675;30;20064;-73
2021/04/04 04:15:25;;;;;;;6.28;3.63;;;;;;;6.34;68.57;100720.88;4720792;30;20064;-73
2021/04/04 04:18:30;;;;;;;9.73;3.45;;;;;;;6.30;68.94;100725.56;4721528;30;20162;-73
2021/04/04 04:21:37;;;;;;;12.68;3.78;;;;;;;6.30;69.26;100722.03;4721436;30;20060;-73
2021/04/04 04:24:42;;;;;;;7.30;3.60;;;;;;;6.32;69.36;100722.81;4720741;30;20415;-73
2021/04/04 04:27:48;;;;;;;8.45;3.70;;;;;;;6.30;69.28;100719.34;4721411;30;20076;-74
2021/04/04 04:30:53;;;;;;;8.63;3.72;;;;;;;6.31;69.00;100721.09;4721272;30;20057;-73
2021/04/04 04:33:58;;;;;;;5.93;3.40;;;;;;;6.30;68.77;100724.69;4721341;30;20072;-74
2021/04/04 04:37:02;;;;;;;5.93;3.60;;;;;;;6.22;68.91;100716.34;4721209;30;20056;-73
2021/04/04 04:40:10;;;;;;;7.60;3.40;;;;;;;6.19;68.85;100727.19;4719980;30;20056;-73
2021/04/04 04:43:16;;;;;;;7.28;3.70;;;;;;;6.19;68.68;100719.22;4721104;30;20515;-74
2021/04/04 04:46:22;;;;;;;8.30;3.53;;;;;;;6.11;68.92;100719.69;4721050;30;20052;-73
2021/04/04 04:49:28;;;;;;;6.53;3.70;;;;;;;6.20;69.03;100723.56;4720266;30;20048;-73
2021/04/04 04:52:32;;;;;;;7.78;3.75;;;;;;;6.22;68.54;100721.69;4721212;30;20113;-73
2021/04/04 04:55:38;;;;;;;8.60;4.10;;;;;;;6.22;68.51;100722.50;4730173;30;20501;-73
2021/04/04 04:58:43;;;;;;;7.93;3.85;;;;;;;6.19;68.43;100729.88;4720165;30;20390;-74
2021/04/04 05:01:49;;;;;;;7.78;3.72;;;;;;;6.13;68.22;100732.91;4720775;30;20064;-74
2021/04/04 05:04:54;;;;;;;6.65;3.33;;;;;;;6.12;68.11;100731.22;4720814;30;20074;-73
2021/04/04 05:07:59;;;;;;;8.00;4.13;;;;;;;6.09;68.14;100731.41;4720769;30;20060;-72
2021/04/04 05:11:06;;;;;;;9.88;3.85;;;;;;;6.23;67.82;100726.03;4719941;30;20397;-74
2021/04/04 05:14:12;;;;;;;16.05;4.88;;;;;;;6.52;66.80;100735.69;4720670;30;20075;-73
2021/04/04 05:17:16;;;;;;;10.48;3.63;;;;;;;6.79;65.79;100731.19;4709259;30;20060;-72
2021/04/04 05:20:21;;;;;;;5.93;3.67;;;;;;;7.15;64.53;100734.09;4720603;30;20231;-74
2021/04/04 05:23:26;;;;;;;9.20;4.05;;;;;;;7.41;63.07;100742.97;4720516;30;20052;-73
2021/04/04 05:26:34;;;;;;;10.38;4.45;;;;;;;7.73;61.93;100744.28;4720420;30;20080;-72
2021/04/04 05:29:38;;;;;;;8.07;4.00;;;;;;;7.89;61.62;100744.06;4720391;30;20068;-72
2021/04/04 05:32:48;;;;;;;8.55;4.05;;;;;;;9.02;58.53;100743.75;4719560;30;20064;-72
2021/04/04 05:35:52;;;;;;;10.32;4.10;;;;;;;9.51;56.15;100737.31;4720268;30;20052;-73
2021/04/04 05:38:57;;;;;;;6.55;3.45;;;;;;;10.04;55.07;100746.53;4719585;30;20060;-74
2021/04/04 05:42:04;;;;;;;7.32;3.88;;;;;;;9.80;55.54;100754.72;4729184;30;20405;-74
2021/04/04 05:45:10;;;;;;;7.28;3.97;;;;;;;9.32;56.84;100751.28;4720163;30;20391;-75
2021/04/04 05:48:15;;;;;;;8.38;3.92;;;;;;;9.31;56.82;100759.47;4720082;30;20051;-74
2021/04/04 05:51:27;;;;;;;6.63;3.85;;;;;;;9.26;56.94;100761.63;4720006;30;20076;-74
2021/04/04 05:54:49;;;;;;;6.53;3.35;;;;;;;9.44;56.77;100766.44;4720218;30;20072;-74
2021/04/04 05:57:58;;;;;;;7.57;3.50;;;;;;;9.28;56.54;100770.41;4719998;30;20074;-74
2021/04/04 06:01:31;;;;;;;8.10;3.70;;;;;;;9.46;56.42;100772.53;4719272;30;20080;-73
2021/04/04 06:05:08;;;;;;;6.28;3.40;;;;;;;9.57;56.62;100777.94;4727633;30;20057;-74
2021/04/04 06:08:33;;;;;;;7.28;3.70;;;;;;;10.06;55.67;100782.13;4719513;30;20060;-74
2021/04/04 06:12:03;;;;;;;8.10;2.85;;;;;;;10.47;54.40;100779.72;4719668;30;20064;-72
2021/04/04 06:15:23;;;;;;;6.30;3.15;;;;;;;10.88;53.31;100776.38;4719936;30;20060;-72
2021/04/04 06:18:52;;;;;;;11.13;3.20;;;;;;;11.31;52.30;100790.59;4719389;30;20076;-74
2021/04/04 06:22:14;;;;;;;9.55;3.42;;;;;;;11.47;52.09;100787.50;4719394;30;20060;-72
2021/04/04 06:25:56;;;;;;;10.40;3.35;;;;;;;11.93;51.81;100785.28;4718725;30;20056;-75
2021/04/04 06:29:31;;;;;;;7.18;3.70;;;;;;;12.38;50.69;100786.66;4721339;30;20071;-73
2021/04/04 06:33:07;;;;;;;11.93;4.13;;;;;;;12.55;51.09;100789.69;4705512;30;20064;-73
2021/04/04 06:36:17;;;;;;;8.30;3.65;;;;;;;12.64;51.71;100795.09;4705516;30;20057;-74
2021/04/04 06:39:29;;;;;;;8.57;4.22;;;;;;;12.75;51.97;100792.31;4699314;30;20060;-73
2021/04/04 06:43:07;;;;;;;10.82;4.78;;;;;;;12.81;51.73;100797.13;4699843;30;20164;-74
2021/04/04 06:46:43;;;;;;;13.35;4.90;;;;;;;11.75;54.64;100794.97;4699838;30;20552;-74
2021/04/04 06:50:02;;;;;;;11.77;5.35;;;;;;;11.35;55.08;100791.22;4701681;30;20068;-73
2021/04/04 06:53:31;;;;;;;10.85;5.50;;;;;;;11.19;56.41;100801.53;4699496;30;20049;-73
2021/04/04 06:56:52;;;;;;;13.85;5.05;;;;;;;12.13;54.58;100797.00;4699986;30;20054;-73
2021/04/04 07:00:12;;;;;;;10.48;5.28;;;;;;;11.65;55.16;100797.53;4699660;30;20049;-73
2021/04/04 07:03:20;;;;;;;12.15;5.45;;;;;;;12.27;54.05;100800.19;4707824;30;20053;-73
2021/04/04 07:06:27;;;;;;;9.52;4.78;;;;;;;12.47;53.24;100797.59;4718984;30;20060;-73
2021/04/04 07:09:46;;;;;;;11.93;5.03;;;;;;;12.87;51.92;100804.66;4719042;30;20390;-73
2021/04/04 07:13:22;;;;;;;11.95;4.35;;;;;;;13.97;48.24;100796.19;4718717;30;20053;-75
2021/04/04 07:16:51;;;;;;;9.93;4.30;;;;;;;14.74;47.22;100791.38;4718745;30;20056;-74
2021/04/04 07:19:55;;;;;;;14.52;5.07;;;;;;;15.81;45.57;100795.00;4717582;30;20056;-73
2021/04/04 07:23:09;;;;;;;9.32;4.43;;;;;;;16.78;43.96;100799.16;4718530;30;20049;-73
2021/04/04 07:26:22;;;;;;;;;;;;;;;16.82;42.54;100798.66;4718722;30;20052;-73
2021/04/04 07:29:47;;;;;;;11.93;3.75;;;;;;;20.56;35.00;100794.25;4718326;30;20363;-74
2021/04/04 07:32:55;;;;;;;7.45;2.90;;;;;;;25.20;25.92;100794.91;4718437;30;20060;-73
2021/04/04 07:36:21;;;;;;;8.30;2.50;;;;;;;30.45;19.65;100782.03;4718433;30;20052;-72
2021/04/04 07:39:49;;;;;;;8.75;2.35;;;;;;;33.95;16.69;100785.44;4718103;30;20136;-75
2021/04/04 07:43:05;;;;;;;6.75;2.40;;;;;;;34.90;15.40;100790.09;4727639;30;20524;-74
2021/04/04 07:46:16;;;;;;;7.22;2.42;;;;;;;34.52;15.61;100793.50;4718245;30;20056;-73
2021/04/04 07:50:00;;;;;;;12.05;2.60;;;;;;;34.26;15.55;100789.94;4718137;30;20048;-72
2021/04/04 07:53:44;;;;;;;8.73;4.50;;;;;;;36.70;14.24;100800.34;4718268;30;20057;-73
2021/04/04 07:57:04;;;;;;;8.05;2.10;;;;;;;35.88;14.89;100799.38;4718247;30;20056;-74
2021/04/04 08:00:12;;;;;;;7.38;2.10;;;;;;;36.58;14.26;100808.31;4717993;30;20052;-73
2021/04/04 08:03:22;;;;;;;8.63;2.70;;;;;;;36.01;14.38;100806.28;4717344;30;20083;-72
2021/04/04 08:06:38;;;;;;;7.93;2.30;;;;;;;36.25;14.44;100810.00;4717346;30;20060;-73
2021/04/04 08:09:48;;;;;;;6.13;1.83;;;;;;;37.20;13.55;100814.91;4717369;30;20072;-74
2021/04/04 08:13:15;;;;;;;10.23;2.55;;;;;;;36.79;13.37;100808.94;4718067;30;20064;-73
2021/04/04 08:16:32;;;;;;;7.40;2.30;;;;;;;34.85;14.44;100808.81;4718317;30;20078;-74
2021/04/04 08:19:41;;;;;;;6.47;1.98;;;;;;;31.49;17.07;100811.47;4718063;30;20053;-73
2021/04/04 08:22:53;;;;;;;6.95;2.03;;;;;;;32.52;16.33;100810.22;4717878;30;20060;-75
2021/04/04 08:26:02;;;;;;;10.00;3.08;;;;;;;28.68;19.28;100801.84;4717139;30;20060;-73
2021/04/04 08:29:10;;;;;;;8.23;2.65;;;;;;;22.16;25.92;100816.66;4717897;30;20060;-75
2021/04/04 08:32:21;;;;;;;5.57;2.00;;;;;;;23.48;24.74;100818.28;4717966;30;20485;-73
2021/04/04 08:35:31;;;;;;;7.43;2.47;;;;;;;23.55;24.83;100822.72;4718004;30;20052;-73
2021/04/04 08:38:45;;;;;;;10.38;2.30;;;;;;;23.95;24.21;100818.94;4727160;30;20057;-73
2021/04/04 08:41:49;;;;;;;11.13;2.50;;;;;;;23.09;24.90;100821.66;4717501;30;20060;-73
2021/04/04 08:45:03;;;;;;;13.52;2.90;;;;;;;23.90;25.09;100837.94;4717859;30;20057;-74
2021/04/04 08:48:09;;;;;;;6.70;2.30;;;;;;;23.19;24.31;100827.59;4717777;30;20056;-73
2021/04/04 08:51:17;;;;;;;9.25;2.28;;;;;;;23.22;24.86;100829.94;4707063;30;20056;-74
2021/04/04 08:54:26;;;;;;;7.30;2.35;;;;;;;22.15;25.46;100836.84;4720926;30;20060;-73
2021/04/04 08:57:36;;;;;;;6.78;2.20;;;;;;;20.88;27.68;100847.56;4721127;30;20056;-72
2021/04/04 09:00:41;;;;;;;4.88;2.00;;;;;;;19.97;28.59;100839.59;4720867;30;20056;-73
2021/04/04 09:03:53;;;;;;;6.93;2.30;;;;;;;19.21;27.76;100842.31;4720894;30;20064;-75
2021/04/04 09:07:05;;;;;;;5.35;2.05;;;;;;;19.04;29.45;100845.31;4720778;30;20393;-73
2021/04/04 09:10:14;;;;;;;8.15;2.28;;;;;;;18.53;29.46;100841.25;4720748;30;20056;-72
2021/04/04 09:13:20;;;;;;;12.40;4.18;;;;;;;17.87;30.32;100849.63;4719905;30;20052;-72
2021/04/04 09:16:24;;;;;;;17.73;12.75;;;;;;;16.65;31.91;100858.41;4720869;30;20071;-72
2021/04/04 09:19:38;;;;;;;8.23;3.22;;;;;;;16.53;33.13;100854.25;4720800;30;20053;-73
2021/04/04 09:22:48;;;;;;;10.25;2.10;;;;;;;16.02;33.13;100855.09;4720561;30;20064;-72
2021/04/04 09:25:57;;;;;;;6.88;2.45;;;;;;;15.98;33.04;100849.13;4720708;30;20060;-74
2021/04/04 09:29:03;;;;;;;10.70;2.65;;;;;;;15.79;33.27;100862.84;4720624;30;20060;-73
2021/04/04 09:32:16;;;;;;;11.57;2.30;;;;;;;15.93;33.81;100862.28;4720558;30;20075;-72
2021/04/04 09:35:22;;;;;;;6.30;2.60;;;;;;;16.32;33.51;100857.31;4720554;30;20052;-73
2021/04/04 09:38:47;;;;;;;7.50;2.72;;;;;;;16.48;32.89;100851.16;4720306;30;20049;-74
2021/04/04 09:41:53;;;;;;;7.03;2.33;;;;;;;16.49;32.11;100852.88;4720311;30;20547;-73
2021/04/04 09:45:17;;;;;;;5.47;2.35;;;;;;;16.48;33.27;100853.88;4720267;30;20056;-73
2021/04/04 09:48:26;;;;;;;6.03;2.17;;;;;;;16.80;32.31;100851.34;4719324;30;20056;-73
2021/04/04 09:51:30;;;;;;;10.27;2.75;;;;;;;16.59;32.96;100853.63;4720003;30;20060;-72
2021/04/04 09:55:01;;;;;;;7.72;3.00;;;;;;;16.94;31.03;100839.88;4720202;30;20057;-72
2021/04/04 09:58:06;;;;;;;5.88;2.78;;;;;;;15.71;34.17;100846.50;4719694;30;20068;-73
2021/04/04 10:01:19;;;;;;;6.75;2.60;;;;;;;16.01;32.92;100840.69;4729176;30;20075;-73
2021/04/04 10:04:23;;;;;;;5.05;2.67;;;;;;;16.15;33.58;100841.94;4719832;30;20056;-74
2021/04/04 10:07:30;;;;;;;5.00;2.47;;;;;;;16.10;32.56;100828.03;4719948;30;20383;-74
2021/04/04 10:10:34;;;;;;;6.28;2.42;;;;;;;16.25;32.93;100823.75;4719685;30;20056;-71
2021/04/04 10:13:39;;;;;;;5.18;2.15;;;;;;;16.31;32.54;100820.41;4719352;30;20059;-74
2021/04/04 10:16:44;;;;;;;4.82;2.63;;;;;;;16.37;31.35;100821.63;4719555;30;20052;-73
2021/04/04 10:19:53;;;;;;;15.85;12.23;;;;;;;15.87;31.59;100819.59;4719780;30;20060;-72
2021/04/04 10:22:58;;;;;;;5.70;3.10;;;;;;;15.29;33.43;100811.06;4719434;30;20053;-72
2021/04/04 10:26:08;;;;;;;6.10;2.90;;;;;;;15.64;34.05;100818.38;4718696;30;20408;-71
2021/04/04 10:29:19;;;;;;;6.40;2.90;;;;;;;15.84;33.55;100814.50;4719478;30;20060;-71
2021/04/04 10:32:27;;;;;;;7.32;2.63;;;;;;;15.69;34.57;100818.75;4719382;30;20383;-72
2021/04/04 10:35:33;;;;;;;10.30;3.13;;;;;;;15.95;33.93;100816.94;4719326;30;20064;-73
2021/04/04 10:38:37;;;;;;;4.68;2.65;;;;;;;16.16;33.63;100800.34;4719201;30;20060;-74
2021/04/04 10:41:43;;;;;;;5.47;2.65;;;;;;;16.53;33.49;100800.06;4719210;30;20060;-73
2021/04/04 10:44:48;;;;;;;8.20;3.45;;;;;;;16.80;33.33;100800.69;4717848;30;20144;-74
2021/04/04 10:48:07;;;;;;;7.93;4.20;;;;;;;16.69;34.00;100792.03;4718931;30;20068;-72
2021/04/04 10:51:17;;;;;;;6.82;2.90;;;;;;;16.41;34.45;100806.75;4719031;30;20056;-73
2021/04/04 10:54:22;;;;;;;6.78;3.00;;;;;;;16.24;33.34;100795.78;4719301;30;20505;-73
2021/04/04 10:57:28;;;;;;;11.48;6.32;;;;;;;16.34;34.28;100805.69;4719243;30;20068;-72
2021/04/04 11:00:32;;;;;;;8.65;4.40;;;;;;;15.94;36.06;100793.59;4718892;30;20045;-73
2021/04/04 11:03:39;;;;;;;7.78;3.60;;;;;;;16.07;35.47;100783.16;4718013;30;20406;-73
2021/04/04 11:06:43;;;;;;;8.27;3.08;;;;;;;16.18;33.91;100779.34;4718820;30;20072;-73
2021/04/04 11:09:48;;;;;;;6.00;3.03;;;;;;;16.41;33.82;100774.22;4718800;30;20056;-73
2021/04/04 11:12:53;;;;;;;10.88;4.40;;;;;;;16.46;34.81;100766.47;4717969;30;20060;-72
2021/04/04 11:16:01;;;;;;;9.20;4.03;;;;;;;15.88;34.98;100767.13;4718122;30;20045;-72
2021/04/04 11:19:09;;;;;;;7.38;2.97;;;;;;;15.51;33.80;100763.78;4718682;30;20064;-72
2021/04/04 11:22:17;;;;;;;5.40;2.70;;;;;;;15.52;33.26;100779.03;4717544;30;20075;-73
2021/04/04 11:25:29;;;;;;;7.38;3.67;;;;;;;15.64;33.36;100761.53;4718801;30;20505;-73
2021/04/04 11:28:33;;;;;;;4.90;2.33;;;;;;;15.85;32.80;100762.03;4718575;30;20060;-73
2021/04/04 11:31:38;;;;;;;5.90;2.50;;;;;;;15.84;33.33;100748.66;4718509;30;20074;-73
2021/04/04 11:34:57;;;;;;;9.13;2.55;;;;;;;16.03;32.00;100754.72;4718451;30;20213;-73
2021/04/04 11:38:11;;;;;;;7.40;2.53;;;;;;;15.67;32.52;100755.81;4727622;30;20060;-73
2021/04/04 11:41:22;;;;;;;9.38;2.55;;;;;;;15.55;33.45;100748.97;4716868;30;20059;-74
2021/04/04 11:44:32;;;;;;;7.65;2.60;;;;;;;15.19;32.97;100750.78;4717552;30;20056;-73
2021/04/04 11:47:36;;;;;;;7.28;3.50;;;;;;;15.43;33.72;100750.19;4727569;30;20070;-72
2021/04/04 11:50:41;;;;;;;6.07;2.90;;;;;;;15.63;32.93;100747.16;4718318;30;20060;-72
2021/04/04 11:53:47;;;;;;;5.45;2.25;;;;;;;15.78;30.92;100733.91;4717529;30;20080;-73
2021/04/04 11:56:52;;;;;;;6.32;2.30;;;;;;;15.69;30.19;100739.41;4718514;30;20060;-73
2021/04/04 12:00:11;;;;;;;6.97;2.63;;;;;;;15.63;30.41;100746.31;4718205;30;20060;-73
2021/04/04 12:03:25;;;;;;;7.18;2.35;;;;;;;15.45;30.09;100737.38;4718122;30;20064;-73
2021/04/04 12:06:29;;;;;;;5.10;2.15;;;;;;;15.47;31.02;100736.22;4717441;30;20394;-74
2021/04/04 12:09:35;;;;;;;6.78;2.20;;;;;;;15.27;30.47;100714.88;4718161;30;20607;-75
2021/04/04 12:12:39;;;;;;;4.50;2.10;;;;;;;15.51;30.80;100725.91;4718100;30;20489;-74
2021/04/04 12:15:43;;;;;;;8.00;2.20;;;;;;;15.56;30.40;100720.88;4718022;30;20080;-73
2021/04/04 12:18:59;;;;;;;5.68;2.20;;;;;;;15.60;30.93;100716.88;4718045;30;20052;-73
2021/04/04 12:22:04;;;;;;;5.47;2.50;;;;;;;15.55;30.59;100717.31;4718014;30;20390;-74
2021/04/04 12:25:19;;;;;;;4.10;1.90;;;;;;;15.46;30.91;100710.16;4718040;30;20123;-73
2021/04/04 12:28:23;;;;;;;5.00;2.40;;;;;;;15.63;32.04;100699.47;4721452;30;20060;-73
2021/04/04 12:31:27;;;;;;;6.72;2.03;;;;;;;15.76;30.35;100708.84;4720559;30;20394;-72
2021/04/04 12:34:39;;;;;;;6.85;2.20;;;;;;;15.73;30.84;100698.34;4721618;30;20064;-73
2021/04/04 12:37:44;;;;;;;5.45;2.17;;;;;;;15.74;31.21;100702.75;4721528;30;20068;-74
2021/04/04 12:40:48;;;;;;;4.35;2.25;;;;;;;15.68;31.28;100706.09;4720583;30;20410;-73
2021/04/04 12:43:53;;;;;;;4.93;2.30;;;;;;;15.53;31.13;100702.25;4721138;30;20075;-73
2021/04/04 12:47:04;;;;;;;3.53;2.17;;;;;;;15.51;30.98;100688.91;4720348;30;20060;-71
2021/04/04 12:50:18;;;;;;;6.30;2.20;;;;;;;15.36;31.80;100697.69;4721320;30;20052;-73
2021/04/04 12:53:34;;;;;;;5.63;2.20;;;;;;;15.38;31.81;100695.69;4720250;30;20061;-72
2021/04/04 12:56:39;;;;;;;4.78;2.00;;;;;;;15.44;31.40;100685.09;4720648;30;20056;-72
2021/04/04 12:59:44;;;;;;;6.00;2.20;;;;;;;15.57;31.64;100682.88;4720285;30;20060;-71
2021/04/04 13:02:56;;;;;;;13.00;2.58;;;;;;;15.47;32.38;100682.13;4720775;30;20068;-71
2021/04/04 13:06:02;;;;;;;4.25;2.08;;;;;;;15.48;31.28;100683.78;4720096;30;20053;-72
2021/04/04 13:09:20;;;;;;;4.68;2.30;;;;;;;15.35;32.08;100687.91;4720806;30;20056;-73
2021/04/04 13:12:24;;;;;;;4.10;2.40;;;;;;;15.43;31.84;100688.78;4720753;30;20071;-75
2021/04/04 13:15:30;;;;;;;3.42;1.98;;;;;;;15.46;31.53;100682.25;4720643;30;20105;-72
2021/04/04 13:18:44;;;;;;;6.18;2.30;;;;;;;15.57;32.35;100687.41;4729878;30;20052;-72
2021/04/04 13:21:48;;;;;;;5.30;1.98;;;;;;;15.39;32.61;100678.44;4719529;30;20060;-73
2021/04/04 13:24:56;;;;;;;5.45;2.38;;;;;;;15.41;32.44;100676.44;4720506;30;20064;-71
2021/04/04 13:28:01;;;;;;;4.15;2.20;;;;;;;15.51;32.07;100683.47;4720480;30;20056;-73
2021/04/04 13:31:21;;;;;;;3.75;1.80;;;;;;;15.64;31.32;100674.94;4720410;30;20402;-72
2021/04/04 13:34:36;;;;;;;8.23;2.10;;;;;;;15.47;31.71;100671.28;4719639;30;20130;-73
2021/04/04 13:37:42;;;;;;;6.45;2.67;;;;;;;15.49;31.16;100663.84;4719292;30;20072;-72
2021/04/04 13:40:46;;;;;;;6.97;4.15;;;;;;;15.71;31.66;100667.88;4719629;30;20501;-73
2021/04/04 13:43:56;;;;;;;6.10;3.40;;;;;;;15.73;31.68;100667.72;4720126;30;20405;-73
2021/04/04 13:47:01;;;;;;;5.95;2.70;;;;;;;15.51;31.78;100671.81;4719333;30;20505;-73
2021/04/04 13:50:16;;;;;;;6.43;2.20;;;;;;;15.45;32.03;100659.78;4720075;30;20501;-72
2021/04/04 13:53:35;;;;;;;6.57;2.20;;;;;;;15.53;32.75;100654.41;4720282;30;20056;-73
2021/04/04 13:56:52;;;;;;;7.47;2.33;;;;;;;15.50;32.38;100657.41;4719997;30;20395;-73
2021/04/04 13:59:57;;;;;;;6.47;2.70;;;;;;;15.58;32.84;100656.63;4719935;30;20366;-73
2021/04/04 14:03:08;;;;;;;7.10;2.95;;;;;;;15.44;32.67;100649.06;4720007;30;20060;-73
2021/04/04 14:06:13;;;;;;;5.65;2.13;;;;;;;15.46;33.41;100655.19;4719095;30;20598;-73
2021/04/04 14:09:17;;;;;;;8.07;1.95;;;;;;;15.42;33.41;100651.94;4719791;30;20052;-73
2021/04/04 14:12:23;;;;;;;4.20;1.90;;;;;;;15.42;31.84;100641.13;4719757;30;20060;-73
2021/04/04 14:15:28;;;;;;;3.83;1.90;;;;;;;15.33;33.41;100638.53;4718862;30;20052;-72
2021/04/04 14:18:37;;;;;;;5.05;2.08;;;;;;;14.83;32.92;100639.13;4719864;30;20497;-72
2021/04/04 14:21:42;;;;;;;3.50;1.60;;;;;;;14.96;32.99;100644.16;4719645;30;20535;-72
2021/04/04 14:24:47;;;;;;;7.18;2.17;;;;;;;15.18;32.69;100643.66;4719569;30;20084;-73
2021/04/04 14:27:51;;;;;;;6.82;2.65;;;;;;;15.29;32.86;100650.63;4719484;30;20398;-72
2021/04/04 14:30:55;;;;;;;4.75;1.90;;;;;;;15.28;32.91;100640.84;4719476;30;20398;-74
2021/04/04 14:34:00;;;;;;;6.43;2.08;;;;;;;15.33;33.89;100646.63;4719540;30;20067;-74
2021/04/04 14:37:04;;;;;;;5.55;2.08;;;;;;;15.35;33.38;100644.63;4718326;30;20057;-73
2021/04/04 14:40:09;;;;;;;4.53;2.10;;;;;;;15.34;32.90;100641.06;4718921;30;20061;-72
2021/04/04 14:46:32;;;;;;;4.28;2.00;;;;;;;15.31;32.86;100638.66;4719369;30;20088;-72
2021/04/04 14:49:37;;;;;;;3.72;1.70;;;;;;;15.33;32.09;100635.81;4718541;30;20501;-72